sensor_id;sensor_type;location;lat;lon;timestamp;pressure;altitude;pressure_sealevel;temperature;humidity
30073;BME280;16897;52.422;13.678;2023-11-22T00:03:42;102135.13;;;4.27;62.24
30073;BME280;16897;52.422;13.678;2023-11-22T00:07:43;102179.00;;;4.40;62.39
30073;BME280;16897;52.422;13.678;2023-11-22T00:11:45;102135.22;;;4.07;62.45
30073;BME280;16897;52.422;13.678;2023-11-22T00:15:46;102170.44;;;4.26;62.37
30073;BME280;16897;52.422;13.678;2023-11-22T00:19:48;102083.72;;;3.73;61.99
30073;BME280;16897;52.422;13.678;2023-11-22T00:23:50;102186.00;;;4.21;62.25
30073;BME280;16897;52.422;13.678;2023-11-22T00:27:51;102183.44;;;4.08;62.28
30073;BME280;16897;52.422;13.678;2023-11-22T00:31:53;102213.63;;;4.09;62.49
30073;BME280;16897;52.422;13.678;2023-11-22T00:35:54;102222.22;;;4.08;62.45
30073;BME280;16897;52.422;13.678;2023-11-22T00:39:57;102233.41;;;4.10;62.51
30073;BME280;16897;52.422;13.678;2023-11-22T00:44:01;102236.03;;;4.08;62.35
30073;BME280;16897;52.422;13.678;2023-11-22T00:48:05;102187.03;;;3.79;62.17
30073;BME280;16897;52.422;13.678;2023-11-22T00:52:06;102227.44;;;3.98;62.40
30073;BME280;16897;52.422;13.678;2023-11-22T00:56:08;102240.38;;;3.92;62.24
30073;BME280;16897;52.422;13.678;2023-11-22T01:00:10;102230.03;;;3.95;62.51
30073;BME280;16897;52.422;13.678;2023-11-22T01:04:13;102243.78;;;3.99;62.19
30073;BME280;16897;52.422;13.678;2023-11-22T01:08:16;102227.47;;;3.91;62.26
30073;BME280;16897;52.422;13.678;2023-11-22T01:12:18;102246.41;;;3.94;62.36
30073;BME280;16897;52.422;13.678;2023-11-22T01:16:20;102187.97;;;3.52;62.34
30073;BME280;16897;52.422;13.678;2023-11-22T01:20:23;102250.75;;;3.82;62.56
30073;BME280;16897;52.422;13.678;2023-11-22T01:24:24;102263.66;;;3.86;62.49
30073;BME280;16897;52.422;13.678;2023-11-22T01:28:27;102238.69;;;3.70;62.31
30073;BME280;16897;52.422;13.678;2023-11-22T01:32:29;102266.28;;;3.75;62.57
30073;BME280;16897;52.422;13.678;2023-11-22T01:36:30;102229.25;;;3.53;62.40
30073;BME280;16897;52.422;13.678;2023-11-22T01:40:33;102250.78;;;3.63;62.36
30073;BME280;16897;52.422;13.678;2023-11-22T01:44:35;102269.72;;;3.71;62.35
30073;BME280;16897;52.422;13.678;2023-11-22T01:48:37;102261.97;;;3.64;62.43
30073;BME280;16897;52.422;13.678;2023-11-22T01:52:39;102263.72;;;3.54;62.45
30073;BME280;16897;52.422;13.678;2023-11-22T01:56:40;102247.38;;;3.46;62.14
30073;BME280;16897;52.422;13.678;2023-11-22T02:00:48;102255.97;;;3.39;62.29
30073;BME280;16897;52.422;13.678;2023-11-22T02:04:50;102264.59;;;3.33;62.19
30073;BME280;16897;52.422;13.678;2023-11-22T02:08:51;102192.34;;;2.87;62.22
30073;BME280;16897;52.422;13.678;2023-11-22T02:12:54;102277.50;;;3.39;62.45
30073;BME280;16897;52.422;13.678;2023-11-22T02:16:55;102264.59;;;3.33;62.37
30073;BME280;16897;52.422;13.678;2023-11-22T02:20:57;102270.59;;;3.26;62.24
30073;BME280;16897;52.422;13.678;2023-11-22T02:24:58;102243.94;;;3.08;62.28
30073;BME280;16897;52.422;13.678;2023-11-22T02:29:00;102283.53;;;3.24;62.24
30073;BME280;16897;52.422;13.678;2023-11-22T02:33:02;102254.25;;;3.01;62.53
30073;BME280;16897;52.422;13.678;2023-11-22T02:37:03;102293.84;;;3.24;62.28
30073;BME280;16897;52.422;13.678;2023-11-22T02:41:06;102222.41;;;2.77;62.32
30073;BME280;16897;52.422;13.678;2023-11-22T02:45:08;102310.22;;;3.22;62.11
30073;BME280;16897;52.422;13.678;2023-11-22T02:49:10;102300.72;;;3.07;62.12
30073;BME280;16897;52.422;13.678;2023-11-22T02:53:12;102321.38;;;3.19;62.11
30073;BME280;16897;52.422;13.678;2023-11-22T02:57:13;102229.25;;;2.58;61.96
30073;BME280;16897;52.422;13.678;2023-11-22T03:01:15;102311.03;;;3.01;62.27
30073;BME280;16897;52.422;13.678;2023-11-22T03:05:17;102301.56;;;2.98;61.96
30073;BME280;16897;52.422;13.678;2023-11-22T03:09:18;102334.25;;;3.04;62.10
30073;BME280;16897;52.422;13.678;2023-11-22T03:13:20;102353.19;;;3.06;62.08
30073;BME280;16897;52.422;13.678;2023-11-22T03:17:22;102308.38;;;2.70;62.29
30073;BME280;16897;52.422;13.678;2023-11-22T03:21:23;102372.06;;;2.94;62.15
30073;BME280;16897;52.422;13.678;2023-11-22T03:25:29;102376.38;;;2.92;62.14
30073;BME280;16897;52.422;13.678;2023-11-22T03:29:30;102335.00;;;2.64;62.09
30073;BME280;16897;52.422;13.678;2023-11-22T03:33:32;102400.47;;;2.99;62.11
30073;BME280;16897;52.422;13.678;2023-11-22T03:37:34;102390.16;;;2.96;62.08
30073;BME280;16897;52.422;13.678;2023-11-22T03:41:36;102390.97;;;2.85;62.22
30073;BME280;16897;52.422;13.678;2023-11-22T03:45:41;102414.22;;;2.93;62.09
30073;BME280;16897;52.422;13.678;2023-11-22T03:49:42;102440.03;;;2.96;62.03
30073;BME280;16897;52.422;13.678;2023-11-22T03:53:44;102334.03;;;2.39;62.09
30073;BME280;16897;52.422;13.678;2023-11-22T03:57:46;102419.38;;;2.87;61.82
30073;BME280;16897;52.422;13.678;2023-11-22T04:01:47;102381.47;;;2.71;62.15
30073;BME280;16897;52.422;13.678;2023-11-22T04:05:49;102400.44;;;2.86;61.99
30073;BME280;16897;52.422;13.678;2023-11-22T04:09:51;102333.22;;;2.50;62.01
30073;BME280;16897;52.422;13.678;2023-11-22T04:13:52;102330.63;;;2.43;61.96
30073;BME280;16897;52.422;13.678;2023-11-22T04:17:54;102372.81;;;2.67;62.14
30073;BME280;16897;52.422;13.678;2023-11-22T04:21:56;102352.97;;;2.48;61.77
30073;BME280;16897;52.422;13.678;2023-11-22T04:25:59;102348.66;;;2.39;62.00
30073;BME280;16897;52.422;13.678;2023-11-22T04:30:01;102397.72;;;2.56;62.02
30073;BME280;16897;52.422;13.678;2023-11-22T04:34:02;102368.41;;;2.32;61.98
30073;BME280;16897;52.422;13.678;2023-11-22T04:38:04;102420.94;;;2.59;62.19
30073;BME280;16897;52.422;13.678;2023-11-22T04:42:06;102391.59;;;2.35;61.92
30073;BME280;16897;52.422;13.678;2023-11-22T04:46:07;102419.22;;;2.55;61.96
30073;BME280;16897;52.422;13.678;2023-11-22T04:50:10;102387.28;;;2.30;61.86
30073;BME280;16897;52.422;13.678;2023-11-22T04:54:12;102417.38;;;2.40;61.91
30073;BME280;16897;52.422;13.678;2023-11-22T04:58:13;102469.13;;;2.69;61.72
30073;BME280;16897;52.422;13.678;2023-11-22T05:02:15;102436.38;;;2.50;61.65
30073;BME280;16897;52.422;13.678;2023-11-22T05:06:17;102477.66;;;2.57;62.08
30073;BME280;16897;52.422;13.678;2023-11-22T05:10:19;102489.69;;;2.58;61.83
30073;BME280;16897;52.422;13.678;2023-11-22T05:14:21;102481.88;;;2.44;61.88
30073;BME280;16897;52.422;13.678;2023-11-22T05:18:23;102435.22;;;2.09;61.96
30073;BME280;16897;52.422;13.678;2023-11-22T05:22:24;102459.31;;;2.13;61.75
30073;BME280;16897;52.422;13.678;2023-11-22T05:26:26;102502.38;;;2.28;61.82
30073;BME280;16897;52.422;13.678;2023-11-22T05:30:28;102440.31;;;1.98;61.95
30073;BME280;16897;52.422;13.678;2023-11-22T05:34:31;102526.53;;;2.42;61.90
30073;BME280;16897;52.422;13.678;2023-11-22T05:38:33;102509.28;;;2.30;61.93
30073;BME280;16897;52.422;13.678;2023-11-22T05:42:35;102458.38;;;2.00;61.71
30073;BME280;16897;52.422;13.678;2023-11-22T05:46:37;102482.41;;;2.02;61.64
30073;BME280;16897;52.422;13.678;2023-11-22T05:50:40;102490.16;;;2.05;61.94
30073;BME280;16897;52.422;13.678;2023-11-22T05:54:42;102458.25;;;1.88;61.62
30073;BME280;16897;52.422;13.678;2023-11-22T05:58:44;102475.44;;;1.90;61.68
30073;BME280;16897;52.422;13.678;2023-11-22T06:02:45;102506.53;;;2.09;61.89
30073;BME280;16897;52.422;13.678;2023-11-22T06:06:47;102481.44;;;1.88;61.79
30073;BME280;16897;52.422;13.678;2023-11-22T06:10:49;102512.44;;;1.98;61.67
30073;BME280;16897;52.422;13.678;2023-11-22T06:14:50;102521.88;;;1.98;61.85
30073;BME280;16897;52.422;13.678;2023-11-22T06:18:52;102502.88;;;1.87;61.80
30073;BME280;16897;52.422;13.678;2023-11-22T06:22:53;102506.25;;;1.80;61.63
30073;BME280;16897;52.422;13.678;2023-11-22T06:26:55;102457.97;;;1.57;61.73
30073;BME280;16897;52.422;13.678;2023-11-22T06:30:57;102486.41;;;1.72;61.87
30073;BME280;16897;52.422;13.678;2023-11-22T06:34:59;102551.16;;;2.06;61.79
30073;BME280;16897;52.422;13.678;2023-11-22T06:39:00;102503.50;;;1.64;61.83
30073;BME280;16897;52.422;13.678;2023-11-22T06:43:02;102553.56;;;1.89;61.65
30073;BME280;16897;52.422;13.678;2023-11-22T06:47:06;102582.81;;;1.96;61.76
30073;BME280;16897;52.422;13.678;2023-11-22T06:51:09;102528.31;;;1.54;61.59
30073;BME280;16897;52.422;13.678;2023-11-22T06:55:10;102535.03;;;1.45;61.59
30073;BME280;16897;52.422;13.678;2023-11-22T06:59:12;102528.94;;;1.35;61.66
30073;BME280;16897;52.422;13.678;2023-11-22T07:03:14;102626.41;;;1.77;61.89
30073;BME280;16897;52.422;13.678;2023-11-22T07:07:17;102626.44;;;1.81;61.74
30073;BME280;16897;52.422;13.678;2023-11-22T07:11:22;102582.16;;;1.39;61.58
30073;BME280;16897;52.422;13.678;2023-11-22T07:15:27;102659.00;;;1.75;61.75
30073;BME280;16897;52.422;13.678;2023-11-22T07:19:29;102651.19;;;1.69;61.70
30073;BME280;16897;52.422;13.678;2023-11-22T07:23:31;102670.97;;;1.70;61.79
30073;BME280;16897;52.422;13.678;2023-11-22T07:27:33;102654.56;;;1.64;61.71
30073;BME280;16897;52.422;13.678;2023-11-22T07:31:34;102668.34;;;1.66;61.83
30073;BME280;16897;52.422;13.678;2023-11-22T07:35:37;102663.09;;;1.61;61.82
30073;BME280;16897;52.422;13.678;2023-11-22T07:39:40;102658.00;;;1.64;61.94
30073;BME280;16897;52.422;13.678;2023-11-22T07:43:44;102670.88;;;1.64;61.80
30073;BME280;16897;52.422;13.678;2023-11-22T07:47:45;102665.63;;;1.55;61.87
30073;BME280;16897;52.422;13.678;2023-11-22T07:51:48;102685.50;;;1.65;61.95
30073;BME280;16897;52.422;13.678;2023-11-22T07:55:53;102672.47;;;1.56;61.90
30073;BME280;16897;52.422;13.678;2023-11-22T07:59:54;102679.53;;;1.68;61.82
30073;BME280;16897;52.422;13.678;2023-11-22T08:03:57;102671.75;;;1.65;61.84
30073;BME280;16897;52.422;13.678;2023-11-22T08:07:58;102650.22;;;1.60;61.89
30073;BME280;16897;52.422;13.678;2023-11-22T08:12:00;102628.75;;;1.59;61.72
30073;BME280;16897;52.422;13.678;2023-11-22T08:16:05;102636.56;;;1.65;61.95
30073;BME280;16897;52.422;13.678;2023-11-22T08:20:08;102596.06;;;1.52;62.02
30073;BME280;16897;52.422;13.678;2023-11-22T08:24:14;102633.13;;;1.66;61.93
30073;BME280;16897;52.422;13.678;2023-11-22T08:28:15;102616.69;;;1.55;61.82
30073;BME280;16897;52.422;13.678;2023-11-22T08:32:17;102648.63;;;1.68;62.13
30073;BME280;16897;52.422;13.678;2023-11-22T08:36:22;102648.53;;;1.60;62.09
30073;BME280;16897;52.422;13.678;2023-11-22T08:40:24;102619.13;;;1.44;61.88
30073;BME280;16897;52.422;13.678;2023-11-22T08:44:27;102631.16;;;1.45;61.92
30073;BME280;16897;52.422;13.678;2023-11-22T08:48:28;102670.94;;;1.69;61.86
30073;BME280;16897;52.422;13.678;2023-11-22T08:52:31;102669.25;;;1.71;62.10
30073;BME280;16897;52.422;13.678;2023-11-22T08:56:33;102676.16;;;1.75;62.16
30073;BME280;16897;52.422;13.678;2023-11-22T09:00:36;102681.34;;;1.78;62.20
30073;BME280;16897;52.422;13.678;2023-11-22T09:04:38;102671.84;;;1.71;62.00
30073;BME280;16897;52.422;13.678;2023-11-22T09:08:40;102668.53;;;1.81;62.00
30073;BME280;16897;52.422;13.678;2023-11-22T09:12:42;102631.41;;;1.65;62.20
30073;BME280;16897;52.422;13.678;2023-11-22T09:16:45;102672.13;;;1.95;62.31
30073;BME280;16897;52.422;13.678;2023-11-22T09:20:52;102685.06;;;1.98;62.13
30073;BME280;16897;52.422;13.678;2023-11-22T09:24:53;102676.41;;;1.92;61.99
30073;BME280;16897;52.422;13.678;2023-11-22T09:28:55;102667.06;;;2.00;62.17
30073;BME280;16897;52.422;13.678;2023-11-22T09:33:19;102676.56;;;2.06;62.33
30073;BME280;16897;52.422;13.678;2023-11-22T09:37:20;102660.28;;;2.13;62.38
30073;BME280;16897;52.422;13.678;2023-11-22T09:41:21;102662.19;;;2.29;62.34
30073;BME280;16897;52.422;13.678;2023-11-22T09:45:23;102638.19;;;2.35;62.36
30073;BME280;16897;52.422;13.678;2023-11-22T09:49:26;102650.25;;;2.37;62.20
30073;BME280;16897;52.422;13.678;2023-11-22T09:53:43;102608.13;;;2.32;62.25
30073;BME280;16897;52.422;13.678;2023-11-22T09:57:49;102620.28;;;2.47;62.26
30073;BME280;16897;52.422;13.678;2023-11-22T10:01:50;102616.94;;;2.60;62.21
30073;BME280;16897;52.422;13.678;2023-11-22T10:05:57;102591.13;;;2.57;62.37
30073;BME280;16897;52.422;13.678;2023-11-22T10:10:00;102628.31;;;2.81;62.57
30073;BME280;16897;52.422;13.678;2023-11-22T10:14:06;102633.47;;;2.82;62.35
30073;BME280;16897;52.422;13.678;2023-11-22T10:18:08;102646.41;;;2.90;62.35
30073;BME280;16897;52.422;13.678;2023-11-22T10:22:10;102666.28;;;2.97;62.40
30073;BME280;16897;52.422;13.678;2023-11-22T10:26:11;102656.78;;;2.96;62.52
30073;BME280;16897;52.422;13.678;2023-11-22T10:30:14;102655.13;;;3.03;62.50
30073;BME280;16897;52.422;13.678;2023-11-22T10:34:19;102652.53;;;3.04;62.68
30073;BME280;16897;52.422;13.678;2023-11-22T10:38:20;102686.28;;;3.30;62.40
30073;BME280;16897;52.422;13.678;2023-11-22T10:42:22;102665.59;;;3.29;62.42
30073;BME280;16897;52.422;13.678;2023-11-22T10:46:28;102648.41;;;3.28;62.33
30073;BME280;16897;52.422;13.678;2023-11-22T10:50:31;102673.50;;;3.49;62.34
30073;BME280;16897;52.422;13.678;2023-11-22T10:54:33;102664.00;;;3.46;62.37
30073;BME280;16897;52.422;13.678;2023-11-22T10:58:51;102670.97;;;3.63;62.34
30073;BME280;16897;52.422;13.678;2023-11-22T11:02:59;102665.81;;;3.60;62.25
30073;BME280;16897;52.422;13.678;2023-11-22T11:07:03;102631.28;;;3.41;62.41
30073;BME280;16897;52.422;13.678;2023-11-22T11:11:04;102654.63;;;3.62;62.24
30073;BME280;16897;52.422;13.678;2023-11-22T11:15:07;102647.72;;;3.63;62.15
30073;BME280;16897;52.422;13.678;2023-11-22T11:19:10;102662.44;;;3.73;62.06
30073;BME280;16897;52.422;13.678;2023-11-22T11:23:12;102675.38;;;3.82;62.21
30073;BME280;16897;52.422;13.678;2023-11-22T11:27:15;102599.47;;;3.59;62.14
30073;BME280;16897;52.422;13.678;2023-11-22T11:31:20;102635.75;;;3.85;62.26
30073;BME280;16897;52.422;13.678;2023-11-22T11:35:47;102639.19;;;3.82;62.27
30073;BME280;16897;52.422;13.678;2023-11-22T11:39:49;102634.91;;;3.93;62.12
30073;BME280;16897;52.422;13.678;2023-11-22T11:43:51;102621.13;;;3.91;62.10
30073;BME280;16897;52.422;13.678;2023-11-22T11:47:53;102608.22;;;3.96;62.35
30073;BME280;16897;52.422;13.678;2023-11-22T11:51:55;102617.72;;;4.03;62.19
30073;BME280;16897;52.422;13.678;2023-11-22T11:55:57;102610.81;;;4.02;62.20
30073;BME280;16897;52.422;13.678;2023-11-22T11:59:59;102589.31;;;4.06;62.05
30073;BME280;16897;52.422;13.678;2023-11-22T12:04:01;102583.28;;;4.16;62.22
30073;BME280;16897;52.422;13.678;2023-11-22T12:08:03;102578.13;;;4.16;61.96
30073;BME280;16897;52.422;13.678;2023-11-22T12:12:06;102573.81;;;4.23;62.00
30073;BME280;16897;52.422;13.678;2023-11-22T12:16:08;102558.31;;;4.25;61.97
30073;BME280;16897;52.422;13.678;2023-11-22T12:20:15;102546.22;;;4.28;61.95
30073;BME280;16897;52.422;13.678;2023-11-22T12:24:19;102517.78;;;4.14;61.93
30073;BME280;16897;52.422;13.678;2023-11-22T12:28:28;102524.69;;;4.26;62.03
30073;BME280;16897;52.422;13.678;2023-11-22T12:32:29;102503.13;;;4.29;62.09
30073;BME280;16897;52.422;13.678;2023-11-22T12:36:31;102465.22;;;4.11;61.79
30073;BME280;16897;52.422;13.678;2023-11-22T12:40:32;102460.91;;;4.13;62.11
30073;BME280;16897;52.422;13.678;2023-11-22T12:44:47;102487.59;;;4.32;61.94
30073;BME280;16897;52.422;13.678;2023-11-22T12:48:50;102503.97;;;4.44;62.03
30073;BME280;16897;52.422;13.678;2023-11-22T12:52:53;102525.53;;;4.48;61.99
30073;BME280;16897;52.422;13.678;2023-11-22T12:56:54;102526.38;;;4.42;62.02
30073;BME280;16897;52.422;13.678;2023-11-22T13:00:59;102556.56;;;4.48;61.88
30073;BME280;16897;52.422;13.678;2023-11-22T13:05:02;102536.75;;;4.33;61.80
30073;BME280;16897;52.422;13.678;2023-11-22T13:09:04;102539.34;;;4.33;61.97
30073;BME280;16897;52.422;13.678;2023-11-22T13:13:05;102571.25;;;4.54;61.97
30073;BME280;16897;52.422;13.678;2023-11-22T13:17:09;102560.91;;;4.38;61.83
30073;BME280;16897;52.422;13.678;2023-11-22T13:21:12;102569.53;;;4.62;61.97
30073;BME280;16897;52.422;13.678;2023-11-22T13:25:14;102573.81;;;4.63;61.86
30073;BME280;16897;52.422;13.678;2023-11-22T13:29:15;102545.38;;;4.57;61.87
30073;BME280;16897;52.422;13.678;2023-11-22T13:33:16;102554.84;;;4.64;62.03
30073;BME280;16897;52.422;13.678;2023-11-22T13:37:22;102537.56;;;4.72;61.90
30073;BME280;16897;52.422;13.678;2023-11-22T13:41:24;102534.97;;;4.72;61.80
30073;BME280;16897;52.422;13.678;2023-11-22T13:45:26;102529.81;;;4.72;61.91
30073;BME280;16897;52.422;13.678;2023-11-22T13:49:28;102511.72;;;4.64;61.95
30073;BME280;16897;52.422;13.678;2023-11-22T13:53:29;102465.16;;;4.51;61.67
30073;BME280;16897;52.422;13.678;2023-11-22T13:57:35;102483.25;;;4.69;61.67
30073;BME280;16897;52.422;13.678;2023-11-22T14:01:36;102491.84;;;4.79;61.64
30073;BME280;16897;52.422;13.678;2023-11-22T14:05:41;102481.50;;;4.77;61.76
30073;BME280;16897;52.422;13.678;2023-11-22T14:09:42;102431.56;;;4.44;61.51
30073;BME280;16897;52.422;13.678;2023-11-22T14:13:46;102467.69;;;4.72;61.60
30073;BME280;16897;52.422;13.678;2023-11-22T14:17:48;102463.41;;;4.70;61.63
30073;BME280;16897;52.422;13.678;2023-11-22T14:21:52;102456.50;;;4.72;61.80
30073;BME280;16897;52.422;13.678;2023-11-22T14:25:54;102471.19;;;4.73;61.66
30073;BME280;16897;52.422;13.678;2023-11-22T14:29:55;102491.00;;;4.72;61.60
30073;BME280;16897;52.422;13.678;2023-11-22T14:33:57;102500.50;;;4.69;61.70
30073;BME280;16897;52.422;13.678;2023-11-22T14:37:58;102516.88;;;4.71;61.71
30073;BME280;16897;52.422;13.678;2023-11-22T14:42:01;102494.47;;;4.65;61.77
30073;BME280;16897;52.422;13.678;2023-11-22T14:46:03;102526.38;;;4.64;61.42
30073;BME280;16897;52.422;13.678;2023-11-22T14:50:07;102517.78;;;4.50;61.42
30073;BME280;16897;52.422;13.678;2023-11-22T14:54:13;102538.44;;;4.59;61.39
30073;BME280;16897;52.422;13.678;2023-11-22T14:58:14;102535.88;;;4.60;61.37
30073;BME280;16897;52.422;13.678;2023-11-22T15:02:15;102519.50;;;4.41;61.48
30073;BME280;16897;52.422;13.678;2023-11-22T15:06:17;102515.19;;;4.43;61.29
30073;BME280;16897;52.422;13.678;2023-11-22T15:10:18;102503.13;;;4.32;61.30
30073;BME280;16897;52.422;13.678;2023-11-22T15:14:20;102496.22;;;4.31;61.20
30073;BME280;16897;52.422;13.678;2023-11-22T15:18:23;102507.47;;;4.30;61.04
30073;BME280;16897;52.422;13.678;2023-11-22T15:22:25;102503.16;;;4.24;61.03
30073;BME280;16897;52.422;13.678;2023-11-22T15:26:27;102510.91;;;4.24;61.39
30073;BME280;16897;52.422;13.678;2023-11-22T15:30:28;102489.34;;;4.17;61.25
30073;BME280;16897;52.422;13.678;2023-11-22T15:34:29;102463.50;;;4.07;61.18
30073;BME280;16897;52.422;13.678;2023-11-22T15:38:31;102473.84;;;4.08;61.19
30073;BME280;16897;52.422;13.678;2023-11-22T15:42:32;102469.53;;;4.03;61.26
30073;BME280;16897;52.422;13.678;2023-11-22T15:46:35;102486.78;;;4.08;61.24
30073;BME280;16897;52.422;13.678;2023-11-22T15:50:36;102490.22;;;4.06;61.41
30073;BME280;16897;52.422;13.678;2023-11-22T15:54:37;102497.97;;;3.98;61.25
30073;BME280;16897;52.422;13.678;2023-11-22T15:58:39;102495.34;;;3.99;61.28
30073;BME280;16897;52.422;13.678;2023-11-22T16:02:43;102463.50;;;3.87;61.40
30073;BME280;16897;52.422;13.678;2023-11-22T16:06:44;102483.31;;;4.05;61.20
30073;BME280;16897;52.422;13.678;2023-11-22T16:10:50;102471.25;;;3.93;61.11
30073;BME280;16897;52.422;13.678;2023-11-22T16:14:56;102474.69;;;4.01;61.49
30073;BME280;16897;52.422;13.678;2023-11-22T16:18:57;102468.66;;;4.01;61.13
30073;BME280;16897;52.422;13.678;2023-11-22T16:22:58;102479.88;;;4.06;61.33
30073;BME280;16897;52.422;13.678;2023-11-22T16:27:01;102467.78;;;3.94;61.41
30073;BME280;16897;52.422;13.678;2023-11-22T16:31:02;102459.19;;;3.92;61.17
30073;BME280;16897;52.422;13.678;2023-11-22T16:35:05;102457.47;;;3.95;61.47
30073;BME280;16897;52.422;13.678;2023-11-22T16:39:07;102470.41;;;4.03;61.38
30073;BME280;16897;52.422;13.678;2023-11-22T16:43:09;102369.63;;;3.57;61.12
30073;BME280;16897;52.422;13.678;2023-11-22T16:47:11;102427.31;;;3.87;61.27
30073;BME280;16897;52.422;13.678;2023-11-22T16:51:12;102441.06;;;3.89;61.24
30073;BME280;16897;52.422;13.678;2023-11-22T16:55:14;102436.78;;;3.83;61.10
30073;BME280;16897;52.422;13.678;2023-11-22T16:59:16;102438.50;;;3.87;61.38
30073;BME280;16897;52.422;13.678;2023-11-22T17:03:18;102379.06;;;3.58;61.37
30073;BME280;16897;52.422;13.678;2023-11-22T17:07:20;102429.03;;;3.94;61.41
30073;BME280;16897;52.422;13.678;2023-11-22T17:11:22;102425.59;;;3.83;61.27
30073;BME280;16897;52.422;13.678;2023-11-22T17:15:23;102394.56;;;3.69;61.48
30073;BME280;16897;52.422;13.678;2023-11-22T17:19:26;102429.91;;;3.93;61.25
30073;BME280;16897;52.422;13.678;2023-11-22T17:23:28;102410.09;;;3.95;61.32
30073;BME280;16897;52.422;13.678;2023-11-22T17:27:29;102407.50;;;3.93;61.35
30073;BME280;16897;52.422;13.678;2023-11-22T17:31:30;102396.28;;;3.96;61.37
30073;BME280;16897;52.422;13.678;2023-11-22T17:35:32;102358.41;;;3.84;61.28
30073;BME280;16897;52.422;13.678;2023-11-22T17:39:33;102359.25;;;3.95;61.35
30073;BME280;16897;52.422;13.678;2023-11-22T17:43:35;102336.84;;;3.91;61.23
30073;BME280;16897;52.422;13.678;2023-11-22T17:47:36;102334.28;;;3.82;61.15
30073;BME280;16897;52.422;13.678;2023-11-22T17:51:39;102359.25;;;3.92;61.23
30073;BME280;16897;52.422;13.678;2023-11-22T17:55:42;102338.59;;;3.89;61.45
30073;BME280;16897;52.422;13.678;2023-11-22T17:59:44;102342.91;;;3.87;61.26
30073;BME280;16897;52.422;13.678;2023-11-22T18:03:45;102366.16;;;3.90;61.18
30073;BME280;16897;52.422;13.678;2023-11-22T18:07:48;102352.38;;;3.87;61.41
30073;BME280;16897;52.422;13.678;2023-11-22T18:11:53;102331.69;;;3.91;61.29
30073;BME280;16897;52.422;13.678;2023-11-22T18:15:54;102284.34;;;3.79;61.13
30073;BME280;16897;52.422;13.678;2023-11-22T18:19:56;102252.50;;;3.53;61.30
30073;BME280;16897;52.422;13.678;2023-11-22T18:23:57;102315.34;;;3.86;61.24
30073;BME280;16897;52.422;13.678;2023-11-22T18:27:59;102309.28;;;3.86;61.35
30073;BME280;16897;52.422;13.678;2023-11-22T18:32:02;102282.63;;;3.70;61.33
30073;BME280;16897;52.422;13.678;2023-11-22T18:36:05;102299.00;;;3.73;61.23
30073;BME280;16897;52.422;13.678;2023-11-22T18:40:07;102299.88;;;3.75;61.44
30073;BME280;16897;52.422;13.678;2023-11-22T18:44:09;102299.84;;;3.72;61.34
30073;BME280;16897;52.422;13.678;2023-11-22T18:48:11;102286.91;;;3.72;61.48
30073;BME280;16897;52.422;13.678;2023-11-22T18:52:12;102287.81;;;3.73;61.15
30073;BME280;16897;52.422;13.678;2023-11-22T18:56:13;102246.47;;;3.61;61.38
30073;BME280;16897;52.422;13.678;2023-11-22T19:00:15;102240.47;;;3.55;61.23
30073;BME280;16897;52.422;13.678;2023-11-22T19:04:17;102252.50;;;3.66;61.43
30073;BME280;16897;52.422;13.678;2023-11-22T19:08:19;102242.16;;;3.64;61.37
30073;BME280;16897;52.422;13.678;2023-11-22T19:12:20;102194.88;;;3.31;61.25
30073;BME280;16897;52.422;13.678;2023-11-22T19:16:22;102217.25;;;3.42;61.28
30073;BME280;16897;52.422;13.678;2023-11-22T19:20:23;102220.69;;;3.50;61.02
30073;BME280;16897;52.422;13.678;2023-11-22T19:24:28;102217.22;;;3.55;61.38
30073;BME280;16897;52.422;13.678;2023-11-22T19:28:30;102207.78;;;3.48;61.17
30073;BME280;16897;52.422;13.678;2023-11-22T19:32:32;102179.41;;;3.38;61.35
30073;BME280;16897;52.422;13.678;2023-11-22T19:36:33;102168.19;;;3.46;61.40
30073;BME280;16897;52.422;13.678;2023-11-22T19:40:35;102156.97;;;3.52;61.22
30073;BME280;16897;52.422;13.678;2023-11-22T19:44:36;102155.25;;;3.40;61.23
30073;BME280;16897;52.422;13.678;2023-11-22T19:48:38;102137.19;;;3.37;61.39
30073;BME280;16897;52.422;13.678;2023-11-22T19:52:39;102141.53;;;3.38;61.08
30073;BME280;16897;52.422;13.678;2023-11-22T19:56:40;102117.44;;;3.24;61.17
30073;BME280;16897;52.422;13.678;2023-11-22T20:00:42;102142.38;;;3.37;61.30
30073;BME280;16897;52.422;13.678;2023-11-22T20:04:45;102132.09;;;3.29;61.26
30073;BME280;16897;52.422;13.678;2023-11-22T20:08:47;102136.38;;;3.33;61.21
30073;BME280;16897;52.422;13.678;2023-11-22T20:12:49;102114.91;;;3.19;61.30
30073;BME280;16897;52.422;13.678;2023-11-22T20:16:50;102080.53;;;2.97;61.20
30073;BME280;16897;52.422;13.678;2023-11-22T20:20:52;102110.59;;;3.17;61.33
30073;BME280;16897;52.422;13.678;2023-11-22T20:24:54;102127.78;;;3.27;61.24
30073;BME280;16897;52.422;13.678;2023-11-22T20:28:56;102104.56;;;3.13;61.31
30073;BME280;16897;52.422;13.678;2023-11-22T20:32:58;102115.75;;;3.20;61.26
30073;BME280;16897;52.422;13.678;2023-11-22T20:37:01;102108.00;;;3.17;61.46
30073;BME280;16897;52.422;13.678;2023-11-22T20:41:03;102099.41;;;3.13;61.10
30073;BME280;16897;52.422;13.678;2023-11-22T20:45:06;102092.53;;;3.15;61.43
30073;BME280;16897;52.422;13.678;2023-11-22T20:49:09;102053.88;;;2.95;61.39
30073;BME280;16897;52.422;13.678;2023-11-22T20:53:11;102038.41;;;2.89;61.33
30073;BME280;16897;52.422;13.678;2023-11-22T20:57:16;102024.63;;;2.88;61.33
30073;BME280;16897;52.422;13.678;2023-11-22T21:01:18;102056.41;;;3.14;61.17
30073;BME280;16897;52.422;13.678;2023-11-22T21:05:19;102045.22;;;3.16;61.27
30073;BME280;16897;52.422;13.678;2023-11-22T21:09:21;102043.47;;;3.15;61.38